createdAt,value
2024-05-09T00:00:10.463Z,3.30
2024-05-09T00:02:44.528Z,3.37
2024-05-09T00:05:15.271Z,3.00
2024-05-09T00:07:45.872Z,2.80
2024-05-09T00:10:25.562Z,2.87
2024-05-09T00:13:03.844Z,2.53
2024-05-09T00:15:34.949Z,2.90
2024-05-09T00:18:08.085Z,3.00
2024-05-09T00:20:41.068Z,3.33
2024-05-09T00:23:13.750Z,3.20
2024-05-09T00:25:48.312Z,3.17
2024-05-09T00:28:18.859Z,2.90
2024-05-09T00:30:49.384Z,2.87
2024-05-09T00:33:20.146Z,3.07
2024-05-09T00:35:50.914Z,3.30
2024-05-09T00:38:22.697Z,3.17
2024-05-09T00:40:55.996Z,3.03
2024-05-09T00:43:26.704Z,2.77
2024-05-09T00:45:57.569Z,3.40
2024-05-09T00:48:30.148Z,2.87
2024-05-09T00:51:01.451Z,3.00
2024-05-09T00:53:32.740Z,3.00
2024-05-09T00:56:08.433Z,3.17
2024-05-09T00:58:39.250Z,3.00
2024-05-09T01:01:11.262Z,3.33
2024-05-09T01:03:41.899Z,3.47
2024-05-09T01:06:12.445Z,3.80
2024-05-09T01:08:45.430Z,4.23
2024-05-09T01:11:18.885Z,4.90
2024-05-09T01:13:49.622Z,4.50
2024-05-09T01:16:20.214Z,3.90
2024-05-09T01:18:51.094Z,3.77
2024-05-09T01:21:21.854Z,3.37
2024-05-09T01:23:55.172Z,3.60
2024-05-09T01:26:25.761Z,3.20
2024-05-09T01:28:56.474Z,3.43
2024-05-09T01:31:27.144Z,3.17
2024-05-09T01:33:57.762Z,3.10
2024-05-09T01:36:28.370Z,3.40
2024-05-09T01:39:01.692Z,2.70
2024-05-09T01:41:32.360Z,2.80
2024-05-09T01:44:03.019Z,2.63
2024-05-09T01:46:33.626Z,2.90
2024-05-09T01:49:04.717Z,2.80
2024-05-09T01:51:35.316Z,2.73
2024-05-09T01:54:09.333Z,2.60
2024-05-09T01:56:39.885Z,3.10
2024-05-09T01:59:10.608Z,2.60
2024-05-09T02:01:56.385Z,2.83
2024-05-09T02:04:28.453Z,2.57
2024-05-09T02:06:59.141Z,2.90
2024-05-09T02:09:32.442Z,2.83
2024-05-09T02:12:03.193Z,2.37
2024-05-09T02:14:33.881Z,3.00
2024-05-09T02:17:04.507Z,2.80
2024-05-09T02:19:35.127Z,3.03
2024-05-09T02:22:05.781Z,2.87
2024-05-09T02:24:38.989Z,2.93
2024-05-09T02:27:09.699Z,3.00
2024-05-09T02:29:40.388Z,3.10
2024-05-09T02:32:11.460Z,2.50
2024-05-09T02:34:42.204Z,3.10
2024-05-09T02:37:13.032Z,3.33
2024-05-09T02:39:43.493Z,2.70
2024-05-09T02:42:14.155Z,3.27
2024-05-09T02:44:41.914Z,2.83
2024-05-09T02:47:12.556Z,2.50
2024-05-09T02:49:40.788Z,2.73
2024-05-09T02:52:11.353Z,3.20
2024-05-09T02:54:39.230Z,2.97
2024-05-09T02:57:12.595Z,2.83
2024-05-09T02:59:40.700Z,2.70
2024-05-09T03:02:11.304Z,2.70
2024-05-09T03:04:41.882Z,2.80
2024-05-09T03:07:12.524Z,2.83
2024-05-09T03:09:47.391Z,2.70
2024-05-09T03:12:20.831Z,2.77
2024-05-09T03:14:51.187Z,2.97
2024-05-09T03:17:24.116Z,3.07
2024-05-09T03:19:52.425Z,2.70
2024-05-09T03:22:22.991Z,2.70
2024-05-09T03:24:50.916Z,3.00
2024-05-09T03:27:24.918Z,2.90
2024-05-09T03:29:52.954Z,2.90
2024-05-09T03:32:23.468Z,2.73
2024-05-09T03:34:51.414Z,3.07
2024-05-09T03:37:21.937Z,3.00
2024-05-09T03:39:52.599Z,2.63
2024-05-09T03:42:25.797Z,3.00
2024-05-09T03:44:56.626Z,2.87
2024-05-09T03:47:27.207Z,2.80
2024-05-09T03:49:57.932Z,2.70
2024-05-09T03:52:26.519Z,3.17
2024-05-09T03:54:57.426Z,2.83
2024-05-09T03:57:28.233Z,2.90
2024-05-09T03:59:58.756Z,2.77
2024-05-09T04:02:27.034Z,2.87
2024-05-09T04:04:57.794Z,2.60
2024-05-09T04:07:25.880Z,2.77
2024-05-09T04:09:56.393Z,3.23
2024-05-09T04:12:27.275Z,2.80
2024-05-09T04:14:58.096Z,2.77
2024-05-09T04:17:28.987Z,2.60
2024-05-09T04:19:57.059Z,3.00
2024-05-09T04:22:27.544Z,2.60
2024-05-09T04:24:55.534Z,2.97
2024-05-09T04:27:26.234Z,3.40
2024-05-09T04:29:57.196Z,2.80
2024-05-09T04:32:27.775Z,3.00
2024-05-09T04:34:56.070Z,3.03
2024-05-09T04:37:26.618Z,2.70
2024-05-09T04:39:54.834Z,3.00
2024-05-09T04:42:25.354Z,3.40
2024-05-09T04:44:58.773Z,3.17
2024-05-09T04:47:29.782Z,3.30
2024-05-09T04:49:58.155Z,2.80
2024-05-09T04:52:28.887Z,3.30
2024-05-09T04:54:58.975Z,3.47
2024-05-09T04:57:29.715Z,3.20
2024-05-09T05:00:04.074Z,3.20
2024-05-09T05:02:38.567Z,3.10
2024-05-09T05:05:07.870Z,3.30
2024-05-09T05:07:42.736Z,3.30
2024-05-09T05:10:15.031Z,3.10
2024-05-09T05:13:07.834Z,3.10
2024-05-09T05:15:41.163Z,3.70
2024-05-09T05:18:09.526Z,3.50
2024-05-09T05:20:40.187Z,3.60
2024-05-09T05:23:12.545Z,3.57
2024-05-09T05:25:43.645Z,3.43
2024-05-09T05:28:11.812Z,3.83
2024-05-09T05:30:45.627Z,3.60
2024-05-09T05:33:16.141Z,3.10
2024-05-09T05:35:47.612Z,3.27
2024-05-09T05:38:15.940Z,3.13
2024-05-09T05:40:46.725Z,3.57
2024-05-09T05:43:18.926Z,3.33
2024-05-09T05:45:52.210Z,3.50
2024-05-09T05:48:20.179Z,3.50
2024-05-09T05:50:52.128Z,3.30
2024-05-09T05:53:20.272Z,3.23
2024-05-09T05:55:50.800Z,7.87
2024-05-09T05:58:20.403Z,5.60
2024-05-09T06:00:55.911Z,3.60
2024-05-09T06:03:23.920Z,3.60
2024-05-09T06:05:54.411Z,3.53
2024-05-09T06:08:22.271Z,3.50
2024-05-09T06:10:52.953Z,3.43
2024-05-09T06:13:20.866Z,3.63
2024-05-09T06:15:54.107Z,3.60
2024-05-09T06:18:22.374Z,4.13
2024-05-09T06:20:53.364Z,4.70
2024-05-09T06:23:22.099Z,4.80
2024-05-09T06:25:53.454Z,4.10
2024-05-09T06:28:26.363Z,4.30
2024-05-09T06:31:01.380Z,3.77
2024-05-09T06:33:29.913Z,3.80
2024-05-09T06:36:02.031Z,3.77
2024-05-09T06:38:30.343Z,3.40
2024-05-09T06:41:01.436Z,3.80
2024-05-09T06:43:29.990Z,3.73
2024-05-09T06:46:04.213Z,3.80
2024-05-09T06:48:33.001Z,4.10
2024-05-09T06:51:06.463Z,3.63
2024-05-09T06:53:34.476Z,3.80
2024-05-09T06:56:07.455Z,3.90
2024-05-09T06:58:36.021Z,3.73
2024-05-09T07:01:10.642Z,3.30
2024-05-09T07:03:42.510Z,3.70
2024-05-09T07:06:18.287Z,3.50
2024-05-09T07:08:51.880Z,3.63
2024-05-09T07:11:24.289Z,3.63
2024-05-09T07:13:57.376Z,4.00
2024-05-09T07:16:33.052Z,3.97
2024-05-09T07:19:02.416Z,3.87
2024-05-09T07:21:34.187Z,3.97
2024-05-09T07:24:04.585Z,3.73
2024-05-09T07:26:35.371Z,3.70
2024-05-09T07:29:03.401Z,3.60
2024-05-09T07:31:38.630Z,4.00
2024-05-09T07:34:06.758Z,3.70
2024-05-09T07:36:37.700Z,6.97
2024-05-09T07:39:05.760Z,4.17
2024-05-09T07:41:37.273Z,4.00
2024-05-09T07:44:06.367Z,3.90
2024-05-09T07:47:47.676Z,3.10
2024-05-09T07:53:25.366Z,3.20
2024-05-09T07:54:49.954Z,2.93
2024-05-09T07:57:20.747Z,2.83
2024-05-09T07:59:48.685Z,3.50
2024-05-09T08:02:22.209Z,2.63
2024-05-09T08:04:50.194Z,3.10
2024-05-09T08:07:20.992Z,2.90
2024-05-09T08:09:48.950Z,2.80
2024-05-09T08:12:19.535Z,2.90
2024-05-09T08:14:47.702Z,3.27
2024-05-09T08:17:21.508Z,3.03
2024-05-09T08:19:49.583Z,3.17
2024-05-09T08:22:20.246Z,3.10
2024-05-09T08:24:48.589Z,2.70
2024-05-09T08:27:19.608Z,2.60
2024-05-09T08:29:47.580Z,2.47
2024-05-09T08:32:18.183Z,2.60
2024-05-09T08:34:48.994Z,2.77
2024-05-09T08:37:23.201Z,2.57
2024-05-09T08:39:53.647Z,2.73
2024-05-09T08:42:26.661Z,2.27
2024-05-09T08:44:54.630Z,2.57
2024-05-09T08:47:25.256Z,2.53
2024-05-09T08:50:00.780Z,2.40
2024-05-09T08:52:31.439Z,2.50
2024-05-09T08:55:00.864Z,2.20
2024-05-09T08:57:33.537Z,2.10
2024-05-09T09:00:10.221Z,2.20
2024-05-09T09:02:47.720Z,2.57
2024-05-09T09:05:21.662Z,2.80
2024-05-09T09:07:52.601Z,2.30
2024-05-09T09:10:29.502Z,2.30
2024-05-09T09:13:09.562Z,2.10
2024-05-09T09:15:48.142Z,2.27
2024-05-09T09:18:19.611Z,2.10
2024-05-09T09:20:50.528Z,2.17
2024-05-09T09:23:21.287Z,2.07
2024-05-09T09:25:50.222Z,2.30
2024-05-09T09:28:20.882Z,2.30
2024-05-09T09:30:52.984Z,2.57
2024-05-09T09:33:23.977Z,1.90
2024-05-09T09:35:56.555Z,1.90
2024-05-09T09:38:34.567Z,2.10
2024-05-09T09:41:08.352Z,1.77
2024-05-09T09:43:42.371Z,2.30
2024-05-09T09:46:13.902Z,2.30
2024-05-09T09:48:47.063Z,2.10
2024-05-09T09:51:19.849Z,2.33
2024-05-09T09:53:55.619Z,2.30
2024-05-09T09:56:25.375Z,2.00
2024-05-09T09:59:01.728Z,2.13
2024-05-09T10:01:31.669Z,2.05
2024-05-09T10:04:04.474Z,2.30
2024-05-09T10:06:42.938Z,2.27
2024-05-09T10:09:18.367Z,2.03
2024-05-09T10:11:51.848Z,2.22
2024-05-09T10:14:26.324Z,2.17
2024-05-09T10:17:05.517Z,2.35
2024-05-09T10:19:37.456Z,2.40
2024-05-09T10:22:09.263Z,2.30
2024-05-09T10:24:55.566Z,2.40
2024-05-09T10:27:31.162Z,2.47
2024-05-09T10:30:06.922Z,2.13
2024-05-09T10:32:41.488Z,2.30
2024-05-09T10:35:15.147Z,2.65
2024-05-09T10:37:46.782Z,2.58
2024-05-09T10:40:26.029Z,2.40
2024-05-09T10:43:03.491Z,2.47
2024-05-09T10:45:38.474Z,2.45
2024-05-09T10:48:08.998Z,2.20
2024-05-09T10:50:43.820Z,2.42
2024-05-09T10:53:14.439Z,2.50
2024-05-09T10:55:44.851Z,2.17
2024-05-09T10:58:18.178Z,2.20
2024-05-09T11:00:48.823Z,2.50
2024-05-09T11:03:19.209Z,2.63
2024-05-09T11:05:50.267Z,2.60
2024-05-09T11:08:22.330Z,2.60
2024-05-09T11:10:55.891Z,2.33
2024-05-09T11:13:31.298Z,2.40
2024-05-09T11:16:03.424Z,2.25
2024-05-09T11:18:36.541Z,2.53
2024-05-09T11:21:15.825Z,2.40
2024-05-09T11:23:47.231Z,2.30
2024-05-09T11:26:19.698Z,2.10
2024-05-09T11:28:48.323Z,2.20
2024-05-09T11:31:19.158Z,2.15
2024-05-09T11:33:47.474Z,2.33
2024-05-09T11:36:20.634Z,2.30
2024-05-09T11:38:51.944Z,2.25
2024-05-09T11:41:22.441Z,2.63
2024-05-09T11:43:50.324Z,2.13
2024-05-09T11:46:22.497Z,2.10
2024-05-09T11:48:51.093Z,2.50
2024-05-09T11:51:22.656Z,2.40
2024-05-09T11:53:53.380Z,2.50
2024-05-09T11:56:24.316Z,2.03
2024-05-09T11:58:53.297Z,1.83
2024-05-09T12:01:26.956Z,2.65
2024-05-09T12:03:55.979Z,2.47
2024-05-09T12:06:27.359Z,2.30
2024-05-09T12:08:58.075Z,2.00
2024-05-09T12:11:36.416Z,2.30
2024-05-09T12:14:05.615Z,2.35
2024-05-09T12:16:36.439Z,2.75
2024-05-09T12:19:04.602Z,2.30
2024-05-09T12:21:36.290Z,2.47
2024-05-09T12:24:06.904Z,2.20
2024-05-09T12:26:37.687Z,8.95
2024-05-09T12:29:05.675Z,2.15
2024-05-09T12:31:36.457Z,2.35
2024-05-09T12:34:05.211Z,2.55
2024-05-09T12:36:35.969Z,2.28
2024-05-09T12:39:06.590Z,2.38
2024-05-09T12:41:37.373Z,2.28
2024-05-09T12:44:05.785Z,2.40
2024-05-09T12:46:38.391Z,2.28
2024-05-09T12:49:14.999Z,2.05
2024-05-09T12:51:48.533Z,2.30
2024-05-09T12:54:20.097Z,2.35
2024-05-09T12:56:50.780Z,2.20
2024-05-09T12:59:19.118Z,2.20
2024-05-09T13:01:49.702Z,2.13
2024-05-09T13:04:17.926Z,1.88
2024-05-09T13:06:51.006Z,2.28
2024-05-09T13:09:22.434Z,2.40
2024-05-09T13:11:53.756Z,2.28
2024-05-09T13:14:21.976Z,2.15
2024-05-09T13:16:53.266Z,2.42
2024-05-09T13:19:21.327Z,2.20
2024-05-09T13:21:52.703Z,2.17
2024-05-09T13:24:23.769Z,2.00
2024-05-09T13:26:54.701Z,1.90
2024-05-09T13:29:22.635Z,2.20
2024-05-09T13:31:53.044Z,2.28
2024-05-09T13:34:21.030Z,2.30
2024-05-09T13:36:51.693Z,1.98
2024-05-09T13:39:19.533Z,2.20
2024-05-09T13:41:52.646Z,2.20
2024-05-09T13:44:20.539Z,2.10
2024-05-09T13:46:51.133Z,2.22
2024-05-09T13:49:19.160Z,2.35
2024-05-09T13:51:49.826Z,2.00
2024-05-09T13:54:20.057Z,2.10
2024-05-09T13:56:55.263Z,2.22
2024-05-09T13:59:23.185Z,2.20
2024-05-09T14:01:55.580Z,2.20
2024-05-09T14:04:23.727Z,2.10
2024-05-09T14:06:55.448Z,2.05
2024-05-09T14:09:23.634Z,2.08
2024-05-09T14:11:56.838Z,2.20
2024-05-09T14:14:25.015Z,2.03
2024-05-09T14:16:55.702Z,2.10
2024-05-09T14:19:23.596Z,2.00
2024-05-09T14:21:54.326Z,2.38
2024-05-09T14:24:22.594Z,2.10
2024-05-09T14:26:55.790Z,2.30
2024-05-09T14:29:23.622Z,2.08
2024-05-09T14:31:54.177Z,2.17
2024-05-09T14:34:22.101Z,2.20
2024-05-09T14:36:52.893Z,2.30
2024-05-09T14:39:20.760Z,1.90
2024-05-09T14:41:51.534Z,1.90
2024-05-09T14:44:21.993Z,2.28
2024-05-09T14:46:52.809Z,2.22
2024-05-09T14:49:20.846Z,2.35
2024-05-09T14:51:54.016Z,2.50
2024-05-09T14:54:21.838Z,2.00
2024-05-09T14:56:54.887Z,2.03
2024-05-09T14:59:25.382Z,2.10
2024-05-09T15:01:56.015Z,2.13
2024-05-09T15:04:24.136Z,2.00
2024-05-09T15:06:58.928Z,2.08
2024-05-09T15:09:36.790Z,2.40
2024-05-09T15:12:09.416Z,2.00
2024-05-09T15:14:40.040Z,2.00
2024-05-09T15:17:10.629Z,1.92
2024-05-09T15:19:38.747Z,1.98
2024-05-09T15:22:11.736Z,2.50
2024-05-09T15:24:42.039Z,2.10
2024-05-09T15:27:12.891Z,2.13
2024-05-09T15:29:43.476Z,2.00
2024-05-09T15:32:14.749Z,1.85
2024-05-09T15:34:42.738Z,2.15
2024-05-09T15:37:13.329Z,1.88
2024-05-09T15:39:41.373Z,2.20
2024-05-09T15:42:12.416Z,2.20
2024-05-09T15:44:45.172Z,2.20
2024-05-09T15:47:15.713Z,2.20
2024-05-09T15:49:43.683Z,2.20
2024-05-09T15:52:14.370Z,2.00
2024-05-09T15:54:42.438Z,2.13
2024-05-09T15:57:13.229Z,1.98
2024-05-09T15:59:43.845Z,2.20
2024-05-09T16:02:14.667Z,2.22
2024-05-09T16:04:42.874Z,1.90
2024-05-09T16:07:13.669Z,1.90
2024-05-09T16:09:41.648Z,1.90
2024-05-09T16:12:12.172Z,2.45
2024-05-09T16:14:42.739Z,2.20
2024-05-09T16:17:13.660Z,2.10
2024-05-09T16:19:41.723Z,2.15
2024-05-09T16:22:12.277Z,1.80
2024-05-09T16:24:40.358Z,2.13
2024-05-09T16:27:10.859Z,2.13
2024-05-09T16:29:39.084Z,1.92
2024-05-09T16:32:12.537Z,2.10
2024-05-09T16:34:40.590Z,2.10
2024-05-09T16:37:12.672Z,2.05
2024-05-09T16:39:40.700Z,2.20
2024-05-09T16:42:11.208Z,2.10
2024-05-09T16:44:39.036Z,2.15
2024-05-09T16:47:12.229Z,2.05
2024-05-09T16:49:40.088Z,2.35
2024-05-09T16:52:11.034Z,2.15
2024-05-09T16:54:41.234Z,2.13
2024-05-09T16:57:14.017Z,2.10
2024-05-09T16:59:45.272Z,2.47
2024-05-09T17:02:17.103Z,2.25
2024-05-09T17:04:48.207Z,1.90
2024-05-09T17:07:16.509Z,2.28
2024-05-09T17:09:47.471Z,2.30
2024-05-09T17:12:18.098Z,2.30
2024-05-09T17:14:48.608Z,2.10
2024-05-09T17:17:22.825Z,2.33
2024-05-09T17:19:50.678Z,3.03
2024-05-09T17:22:21.250Z,2.30
2024-05-09T17:24:49.395Z,2.90
2024-05-09T17:27:20.185Z,2.90
2024-05-09T17:29:48.177Z,2.83
2024-05-09T17:32:21.922Z,3.15
2024-05-09T17:34:50.270Z,3.38
2024-05-09T17:37:21.636Z,3.40
2024-05-09T17:39:49.595Z,2.70
2024-05-09T17:42:20.200Z,3.40
2024-05-09T17:44:48.348Z,3.13
2024-05-09T17:47:22.075Z,3.70
2024-05-09T17:49:53.060Z,3.30
2024-05-09T17:52:21.089Z,2.95
2024-05-09T17:54:51.824Z,2.75
2024-05-09T17:57:19.992Z,3.38
2024-05-09T17:59:52.110Z,3.20
2024-05-09T18:02:22.725Z,3.15
2024-05-09T18:04:53.612Z,3.30
2024-05-09T18:07:22.815Z,3.75
2024-05-09T18:09:53.996Z,3.35
2024-05-09T18:12:22.304Z,3.35
2024-05-09T18:14:53.642Z,3.47
2024-05-09T18:17:25.859Z,2.80
2024-05-09T18:19:57.253Z,3.38
2024-05-09T18:22:25.407Z,3.10
2024-05-09T18:24:56.230Z,3.50
2024-05-09T18:27:24.143Z,3.30
2024-05-09T18:29:54.619Z,3.40
2024-05-09T18:32:25.150Z,3.42
2024-05-09T18:34:56.057Z,3.60
2024-05-09T18:37:24.492Z,3.17
2024-05-09T18:39:55.114Z,3.03
2024-05-09T18:42:23.651Z,3.30
2024-05-09T18:44:54.278Z,3.60
2024-05-09T18:47:25.413Z,5.13
2024-05-09T18:49:56.946Z,7.70
2024-05-09T18:52:27.240Z,8.55
2024-05-09T18:54:58.644Z,7.50
2024-05-09T18:57:27.131Z,7.33
2024-05-09T18:59:58.161Z,7.47
2024-05-09T19:02:29.422Z,7.40
2024-05-09T19:05:01.375Z,6.30
2024-05-09T19:07:31.802Z,5.63
2024-05-09T19:10:05.575Z,5.67
2024-05-09T19:12:41.491Z,6.20
2024-05-09T19:15:12.514Z,5.87
2024-05-09T19:17:43.373Z,5.77
2024-05-09T19:20:24.871Z,5.80
2024-05-09T19:22:57.106Z,5.37
2024-05-09T19:25:27.930Z,5.53
2024-05-09T19:27:57.163Z,5.20
2024-05-09T19:30:36.843Z,5.13
2024-05-09T19:33:12.973Z,5.40
2024-05-09T19:35:44.767Z,5.50
2024-05-09T19:38:13.686Z,5.33
2024-05-09T19:40:45.075Z,5.10
2024-05-09T19:43:13.534Z,4.73
2024-05-09T19:45:44.188Z,4.70
2024-05-09T19:48:15.708Z,4.03
2024-05-09T19:50:48.352Z,4.50
2024-05-09T19:53:18.851Z,4.40
2024-05-09T19:55:49.526Z,4.50
2024-05-09T19:58:18.044Z,4.40
2024-05-09T20:00:48.824Z,4.20
2024-05-09T20:03:20.395Z,4.50
2024-05-09T20:05:51.479Z,5.10
2024-05-09T20:08:19.797Z,5.10
2024-05-09T20:10:50.647Z,5.33
2024-05-09T20:13:19.054Z,6.00
2024-05-09T20:15:49.656Z,5.50
2024-05-09T20:18:20.638Z,5.40
2024-05-09T20:20:53.910Z,5.27
2024-05-09T20:23:22.190Z,5.23
2024-05-09T20:25:53.610Z,4.83
2024-05-09T20:28:21.678Z,5.00
2024-05-09T20:30:52.949Z,4.90
2024-05-09T20:33:23.770Z,5.03
2024-05-09T20:35:55.681Z,3.97
2024-05-09T20:38:23.919Z,3.93
2024-05-09T20:40:55.240Z,3.83
2024-05-09T20:43:23.362Z,3.60
2024-05-09T20:45:54.092Z,3.70
2024-05-09T20:48:25.043Z,3.63
2024-05-09T20:50:56.825Z,3.33
2024-05-09T20:53:24.866Z,3.70
2024-05-09T20:55:55.761Z,3.40
2024-05-09T20:58:23.943Z,3.77
2024-05-09T21:00:55.752Z,3.50
2024-05-09T21:03:26.489Z,3.60
2024-05-09T21:05:57.105Z,3.80
2024-05-09T21:08:26.922Z,3.80
2024-05-09T21:11:00.717Z,4.13
2024-05-09T21:13:28.998Z,3.80
2024-05-09T21:15:59.646Z,4.10
2024-05-09T21:18:30.262Z,4.43
2024-05-09T21:21:00.743Z,4.10
2024-05-09T21:23:28.555Z,4.20
2024-05-09T21:25:59.296Z,3.93
2024-05-09T21:28:27.213Z,4.07
2024-05-09T21:30:57.852Z,4.20
2024-05-09T21:33:28.463Z,3.97
2024-05-09T21:35:59.341Z,4.00
2024-05-09T21:38:27.226Z,3.80
2024-05-09T21:40:57.985Z,4.63
2024-05-09T21:43:28.794Z,4.27
2024-05-09T21:45:59.300Z,4.30
2024-05-09T21:48:29.895Z,4.50
2024-05-09T21:51:00.432Z,4.33
2024-05-09T21:53:28.260Z,4.20
2024-05-09T21:55:58.681Z,4.03
2024-05-09T21:58:26.723Z,4.27
2024-05-09T22:00:57.591Z,3.73
2024-05-09T22:03:25.586Z,4.20
2024-05-09T22:05:58.781Z,4.30
2024-05-09T22:11:24.441Z,4.37
2024-05-09T22:13:52.257Z,4.50
2024-05-09T22:16:23.386Z,4.13
2024-05-09T22:18:51.376Z,4.33
2024-05-09T22:21:24.596Z,4.00
2024-05-09T22:23:53.048Z,4.00
2024-05-09T22:26:23.661Z,4.30
2024-05-09T22:28:51.540Z,3.83
2024-05-09T22:31:22.210Z,4.13
2024-05-09T22:33:50.351Z,4.13
2024-05-09T22:36:23.570Z,3.90
2024-05-09T22:38:51.388Z,4.00
2024-05-09T22:41:22.022Z,4.03
2024-05-09T22:43:49.850Z,4.10
2024-05-09T22:46:20.495Z,4.10
2024-05-09T22:48:48.567Z,4.37
2024-05-09T22:51:19.213Z,4.20
2024-05-09T22:53:49.715Z,3.67
2024-05-09T22:56:30.183Z,4.33
2024-05-09T22:58:58.291Z,4.20
2024-05-09T23:01:28.897Z,4.50
2024-05-09T23:03:56.991Z,3.93
2024-05-09T23:06:27.571Z,4.00
2024-05-09T23:08:58.102Z,4.20
2024-05-09T23:11:28.672Z,4.10
2024-05-09T23:13:56.567Z,4.27
2024-05-09T23:16:27.076Z,4.40
2024-05-09T23:18:55.075Z,3.90
2024-05-09T23:21:25.623Z,4.40
2024-05-09T23:23:53.596Z,4.30
2024-05-09T23:26:26.776Z,4.27
2024-05-09T23:28:54.628Z,4.00
2024-05-09T23:31:25.225Z,3.93
2024-05-09T23:33:55.279Z,3.90
2024-05-09T23:36:25.850Z,4.03
2024-05-09T23:38:53.684Z,4.27
2024-05-09T23:41:27.074Z,4.07
2024-05-09T23:43:54.973Z,4.27
2024-05-09T23:46:25.892Z,4.77
2024-05-09T23:48:54.009Z,4.43
2024-05-09T23:51:24.743Z,4.30
2024-05-09T23:53:52.639Z,4.37
2024-05-09T23:56:23.847Z,4.60
2024-05-09T23:58:54.383Z,3.97
